sensor_id;sensor_type;location;lat;lon;timestamp;P1;durP1;ratioP1;P2;durP2;ratioP2
52586;SDS011;38480;52.724;6.436;2022-08-19T00:00:16;25.83;;;14.73;;
52586;SDS011;38480;52.724;6.436;2022-08-19T00:02:44;23.27;;;13.33;;
52586;SDS011;38480;52.724;6.436;2022-08-19T00:05:11;21.80;;;12.80;;
52586;SDS011;38480;52.724;6.436;2022-08-19T00:07:37;25.83;;;13.80;;
52586;SDS011;38480;52.724;6.436;2022-08-19T00:10:06;21.00;;;13.23;;
52586;SDS011;38480;52.724;6.436;2022-08-19T00:12:33;23.90;;;12.73;;
52586;SDS011;38480;52.724;6.436;2022-08-19T00:14:59;23.77;;;13.13;;
52586;SDS011;38480;52.724;6.436;2022-08-19T00:17:25;24.33;;;13.07;;
52586;SDS011;38480;52.724;6.436;2022-08-19T00:19:51;20.33;;;12.27;;
52586;SDS011;38480;52.724;6.436;2022-08-19T00:22:17;18.80;;;11.53;;
52586;SDS011;38480;52.724;6.436;2022-08-19T00:24:44;17.03;;;12.10;;
52586;SDS011;38480;52.724;6.436;2022-08-19T00:27:10;24.13;;;12.73;;
52586;SDS011;38480;52.724;6.436;2022-08-19T00:29:37;18.37;;;11.67;;
52586;SDS011;38480;52.724;6.436;2022-08-19T00:32:03;19.47;;;13.27;;
52586;SDS011;38480;52.724;6.436;2022-08-19T00:34:29;22.77;;;13.10;;
52586;SDS011;38480;52.724;6.436;2022-08-19T00:36:55;24.73;;;14.03;;
52586;SDS011;38480;52.724;6.436;2022-08-19T00:39:22;22.37;;;13.23;;
52586;SDS011;38480;52.724;6.436;2022-08-19T00:41:48;21.60;;;12.10;;
52586;SDS011;38480;52.724;6.436;2022-08-19T00:44:16;24.73;;;11.60;;
52586;SDS011;38480;52.724;6.436;2022-08-19T00:46:45;20.60;;;11.63;;
52586;SDS011;38480;52.724;6.436;2022-08-19T00:49:20;19.87;;;11.10;;
52586;SDS011;38480;52.724;6.436;2022-08-19T00:51:50;21.17;;;12.97;;
52586;SDS011;38480;52.724;6.436;2022-08-19T00:54:17;18.97;;;11.60;;
52586;SDS011;38480;52.724;6.436;2022-08-19T00:56:43;19.30;;;11.00;;
52586;SDS011;38480;52.724;6.436;2022-08-19T00:59:10;18.47;;;10.97;;
52586;SDS011;38480;52.724;6.436;2022-08-19T01:01:38;23.20;;;11.13;;
52586;SDS011;38480;52.724;6.436;2022-08-19T01:04:04;26.90;;;12.50;;
52586;SDS011;38480;52.724;6.436;2022-08-19T01:06:30;18.20;;;10.60;;
52586;SDS011;38480;52.724;6.436;2022-08-19T01:08:57;19.17;;;10.53;;
52586;SDS011;38480;52.724;6.436;2022-08-19T01:11:24;22.20;;;12.83;;
52586;SDS011;38480;52.724;6.436;2022-08-19T01:13:50;24.83;;;12.33;;
52586;SDS011;38480;52.724;6.436;2022-08-19T01:16:18;17.47;;;11.50;;
52586;SDS011;38480;52.724;6.436;2022-08-19T01:18:45;23.80;;;13.80;;
52586;SDS011;38480;52.724;6.436;2022-08-19T01:23:56;30.37;;;16.17;;
52586;SDS011;38480;52.724;6.436;2022-08-19T01:26:23;32.40;;;16.27;;
52586;SDS011;38480;52.724;6.436;2022-08-19T01:28:51;30.40;;;17.10;;
52586;SDS011;38480;52.724;6.436;2022-08-19T01:31:19;24.97;;;15.30;;
52586;SDS011;38480;52.724;6.436;2022-08-19T01:33:49;26.93;;;15.07;;
52586;SDS011;38480;52.724;6.436;2022-08-19T01:36:24;33.73;;;17.27;;
52586;SDS011;38480;52.724;6.436;2022-08-19T01:38:51;27.93;;;16.20;;
52586;SDS011;38480;52.724;6.436;2022-08-19T01:41:17;31.87;;;16.30;;
52586;SDS011;38480;52.724;6.436;2022-08-19T01:43:44;36.00;;;17.43;;
52586;SDS011;38480;52.724;6.436;2022-08-19T01:46:10;34.13;;;16.23;;
52586;SDS011;38480;52.724;6.436;2022-08-19T01:48:38;31.13;;;16.53;;
52586;SDS011;38480;52.724;6.436;2022-08-19T01:51:04;31.27;;;17.43;;
52586;SDS011;38480;52.724;6.436;2022-08-19T01:53:31;39.77;;;17.87;;
52586;SDS011;38480;52.724;6.436;2022-08-19T01:55:57;38.23;;;19.27;;
52586;SDS011;38480;52.724;6.436;2022-08-19T01:58:24;40.23;;;19.30;;
52586;SDS011;38480;52.724;6.436;2022-08-19T02:00:55;32.07;;;17.40;;
52586;SDS011;38480;52.724;6.436;2022-08-19T02:03:21;32.30;;;18.30;;
52586;SDS011;38480;52.724;6.436;2022-08-19T02:05:53;43.40;;;19.27;;
52586;SDS011;38480;52.724;6.436;2022-08-19T02:08:19;40.80;;;19.33;;
52586;SDS011;38480;52.724;6.436;2022-08-19T02:10:45;40.03;;;17.90;;
52586;SDS011;38480;52.724;6.436;2022-08-19T02:13:12;46.80;;;19.07;;
52586;SDS011;38480;52.724;6.436;2022-08-19T02:15:38;42.83;;;18.90;;
52586;SDS011;38480;52.724;6.436;2022-08-19T02:18:04;47.60;;;20.00;;
52586;SDS011;38480;52.724;6.436;2022-08-19T02:20:32;38.97;;;18.57;;
52586;SDS011;38480;52.724;6.436;2022-08-19T02:22:58;41.80;;;18.93;;
52586;SDS011;38480;52.724;6.436;2022-08-19T02:25:26;40.10;;;18.03;;
52586;SDS011;38480;52.724;6.436;2022-08-19T02:27:52;37.20;;;17.47;;
52586;SDS011;38480;52.724;6.436;2022-08-19T02:30:19;37.20;;;17.17;;
52586;SDS011;38480;52.724;6.436;2022-08-19T02:32:45;37.00;;;17.83;;
52586;SDS011;38480;52.724;6.436;2022-08-19T02:35:12;41.27;;;17.30;;
52586;SDS011;38480;52.724;6.436;2022-08-19T02:37:39;46.43;;;19.97;;
52586;SDS011;38480;52.724;6.436;2022-08-19T02:40:24;30.70;;;13.67;;
52586;SDS011;38480;52.724;6.436;2022-08-19T02:42:50;20.93;;;9.53;;
52586;SDS011;38480;52.724;6.436;2022-08-19T02:45:16;24.57;;;10.57;;
52586;SDS011;38480;52.724;6.436;2022-08-19T02:47:42;28.50;;;13.43;;
52586;SDS011;38480;52.724;6.436;2022-08-19T02:50:08;33.07;;;13.90;;
52586;SDS011;38480;52.724;6.436;2022-08-19T02:52:34;25.87;;;12.63;;
52586;SDS011;38480;52.724;6.436;2022-08-19T02:55:00;36.20;;;15.47;;
52586;SDS011;38480;52.724;6.436;2022-08-19T02:57:27;32.00;;;14.60;;
52586;SDS011;38480;52.724;6.436;2022-08-19T02:59:53;26.73;;;13.20;;
52586;SDS011;38480;52.724;6.436;2022-08-19T03:02:19;34.53;;;14.63;;
52586;SDS011;38480;52.724;6.436;2022-08-19T03:04:45;34.70;;;14.93;;
52586;SDS011;38480;52.724;6.436;2022-08-19T03:07:14;36.30;;;15.43;;
52586;SDS011;38480;52.724;6.436;2022-08-19T03:09:41;43.33;;;18.83;;
52586;SDS011;38480;52.724;6.436;2022-08-19T03:12:09;57.33;;;22.33;;
52586;SDS011;38480;52.724;6.436;2022-08-19T03:14:35;52.17;;;22.30;;
52586;SDS011;38480;52.724;6.436;2022-08-19T03:17:03;42.23;;;19.30;;
52586;SDS011;38480;52.724;6.436;2022-08-19T03:19:29;43.27;;;18.93;;
52586;SDS011;38480;52.724;6.436;2022-08-19T03:21:56;55.60;;;22.50;;
52586;SDS011;38480;52.724;6.436;2022-08-19T03:24:23;40.07;;;17.30;;
52586;SDS011;38480;52.724;6.436;2022-08-19T03:26:54;46.23;;;18.60;;
52586;SDS011;38480;52.724;6.436;2022-08-19T03:29:24;64.30;;;23.33;;
52586;SDS011;38480;52.724;6.436;2022-08-19T03:31:51;82.77;;;27.83;;
52586;SDS011;38480;52.724;6.436;2022-08-19T03:34:19;62.20;;;24.67;;
52586;SDS011;38480;52.724;6.436;2022-08-19T03:36:45;55.73;;;25.37;;
52586;SDS011;38480;52.724;6.436;2022-08-19T03:39:12;80.77;;;27.50;;
52586;SDS011;38480;52.724;6.436;2022-08-19T03:41:40;60.33;;;22.63;;
52586;SDS011;38480;52.724;6.436;2022-08-19T03:44:06;48.70;;;21.40;;
52586;SDS011;38480;52.724;6.436;2022-08-19T03:46:33;62.63;;;23.20;;
52586;SDS011;38480;52.724;6.436;2022-08-19T03:49:01;50.47;;;21.23;;
52586;SDS011;38480;52.724;6.436;2022-08-19T03:51:36;59.10;;;22.30;;
52586;SDS011;38480;52.724;6.436;2022-08-19T03:54:04;84.77;;;28.60;;
52586;SDS011;38480;52.724;6.436;2022-08-19T03:56:30;52.53;;;22.60;;
52586;SDS011;38480;52.724;6.436;2022-08-19T03:58:59;49.73;;;22.37;;
52586;SDS011;38480;52.724;6.436;2022-08-19T04:01:26;48.90;;;23.37;;
52586;SDS011;38480;52.724;6.436;2022-08-19T04:03:53;41.60;;;20.57;;
52586;SDS011;38480;52.724;6.436;2022-08-19T04:06:20;33.53;;;17.27;;
52586;SDS011;38480;52.724;6.436;2022-08-19T04:08:47;35.70;;;17.93;;
52586;SDS011;38480;52.724;6.436;2022-08-19T04:11:16;35.77;;;17.57;;
52586;SDS011;38480;52.724;6.436;2022-08-19T04:13:42;38.90;;;19.23;;
52586;SDS011;38480;52.724;6.436;2022-08-19T04:16:09;41.43;;;20.07;;
52586;SDS011;38480;52.724;6.436;2022-08-19T04:18:36;38.57;;;19.53;;
52586;SDS011;38480;52.724;6.436;2022-08-19T04:21:03;41.70;;;20.07;;
52586;SDS011;38480;52.724;6.436;2022-08-19T04:23:29;63.17;;;24.80;;
52586;SDS011;38480;52.724;6.436;2022-08-19T04:25:55;35.03;;;18.93;;
52586;SDS011;38480;52.724;6.436;2022-08-19T04:28:22;53.30;;;21.90;;
52586;SDS011;38480;52.724;6.436;2022-08-19T04:30:50;32.77;;;17.40;;
52586;SDS011;38480;52.724;6.436;2022-08-19T04:33:17;40.97;;;20.57;;
52586;SDS011;38480;52.724;6.436;2022-08-19T04:35:45;45.97;;;20.70;;
52586;SDS011;38480;52.724;6.436;2022-08-19T04:38:12;49.43;;;21.70;;
52586;SDS011;38480;52.724;6.436;2022-08-19T04:40:41;44.50;;;20.43;;
52586;SDS011;38480;52.724;6.436;2022-08-19T04:43:27;63.30;;;24.77;;
52586;SDS011;38480;52.724;6.436;2022-08-19T04:45:53;58.80;;;23.67;;
52586;SDS011;38480;52.724;6.436;2022-08-19T04:48:19;48.00;;;20.10;;
52586;SDS011;38480;52.724;6.436;2022-08-19T04:50:50;41.60;;;20.13;;
52586;SDS011;38480;52.724;6.436;2022-08-19T04:53:21;67.27;;;25.60;;
52586;SDS011;38480;52.724;6.436;2022-08-19T04:55:47;91.27;;;34.13;;
52586;SDS011;38480;52.724;6.436;2022-08-19T04:58:13;78.93;;;33.20;;
52586;SDS011;38480;52.724;6.436;2022-08-19T05:00:41;85.37;;;34.50;;
52586;SDS011;38480;52.724;6.436;2022-08-19T05:03:08;79.57;;;33.13;;
52586;SDS011;38480;52.724;6.436;2022-08-19T05:05:37;111.60;;;38.57;;
52586;SDS011;38480;52.724;6.436;2022-08-19T05:08:03;102.43;;;36.73;;
52586;SDS011;38480;52.724;6.436;2022-08-19T05:10:30;97.80;;;36.97;;
52586;SDS011;38480;52.724;6.436;2022-08-19T05:12:56;88.90;;;35.80;;
52586;SDS011;38480;52.724;6.436;2022-08-19T05:15:23;94.53;;;37.03;;
52586;SDS011;38480;52.724;6.436;2022-08-19T05:17:49;84.07;;;35.43;;
52586;SDS011;38480;52.724;6.436;2022-08-19T05:20:42;78.07;;;34.07;;
52586;SDS011;38480;52.724;6.436;2022-08-19T05:23:27;70.60;;;32.40;;
52586;SDS011;38480;52.724;6.436;2022-08-19T05:25:53;65.93;;;30.80;;
52586;SDS011;38480;52.724;6.436;2022-08-19T05:28:19;69.20;;;30.97;;
52586;SDS011;38480;52.724;6.436;2022-08-19T05:30:46;75.83;;;32.67;;
52586;SDS011;38480;52.724;6.436;2022-08-19T05:33:13;70.27;;;30.90;;
52586;SDS011;38480;52.724;6.436;2022-08-19T05:35:39;86.03;;;34.20;;
52586;SDS011;38480;52.724;6.436;2022-08-19T05:38:06;72.53;;;29.53;;
52586;SDS011;38480;52.724;6.436;2022-08-19T05:40:37;64.10;;;29.00;;
52586;SDS011;38480;52.724;6.436;2022-08-19T05:43:04;63.70;;;30.17;;
52586;SDS011;38480;52.724;6.436;2022-08-19T05:45:30;65.63;;;29.33;;
52586;SDS011;38480;52.724;6.436;2022-08-19T05:47:56;80.67;;;33.20;;
52586;SDS011;38480;52.724;6.436;2022-08-19T05:50:23;76.27;;;32.10;;
52586;SDS011;38480;52.724;6.436;2022-08-19T05:52:51;63.30;;;30.80;;
52586;SDS011;38480;52.724;6.436;2022-08-19T05:55:17;69.70;;;31.87;;
52586;SDS011;38480;52.724;6.436;2022-08-19T05:57:45;69.97;;;32.93;;
52586;SDS011;38480;52.724;6.436;2022-08-19T06:00:11;68.93;;;33.43;;
52586;SDS011;38480;52.724;6.436;2022-08-19T06:02:38;67.53;;;33.27;;
52586;SDS011;38480;52.724;6.436;2022-08-19T06:05:04;72.03;;;35.37;;
52586;SDS011;38480;52.724;6.436;2022-08-19T06:07:35;68.67;;;34.67;;
52586;SDS011;38480;52.724;6.436;2022-08-19T06:10:02;69.73;;;34.67;;
52586;SDS011;38480;52.724;6.436;2022-08-19T06:12:29;79.13;;;35.30;;
52586;SDS011;38480;52.724;6.436;2022-08-19T06:14:59;72.60;;;34.40;;
52586;SDS011;38480;52.724;6.436;2022-08-19T06:17:25;72.27;;;34.93;;
52586;SDS011;38480;52.724;6.436;2022-08-19T06:19:51;62.00;;;31.57;;
52586;SDS011;38480;52.724;6.436;2022-08-19T06:22:18;63.80;;;33.13;;
52586;SDS011;38480;52.724;6.436;2022-08-19T06:24:44;56.80;;;30.73;;
52586;SDS011;38480;52.724;6.436;2022-08-19T06:27:10;60.07;;;31.97;;
52586;SDS011;38480;52.724;6.436;2022-08-19T06:29:36;63.73;;;31.80;;
52586;SDS011;38480;52.724;6.436;2022-08-19T06:32:02;64.20;;;34.37;;
52586;SDS011;38480;52.724;6.436;2022-08-19T06:34:29;55.87;;;30.07;;
52586;SDS011;38480;52.724;6.436;2022-08-19T06:36:56;46.90;;;27.90;;
52586;SDS011;38480;52.724;6.436;2022-08-19T06:39:27;59.57;;;32.50;;
52586;SDS011;38480;52.724;6.436;2022-08-19T06:41:54;44.80;;;27.17;;
52586;SDS011;38480;52.724;6.436;2022-08-19T06:44:22;53.53;;;28.63;;
52586;SDS011;38480;52.724;6.436;2022-08-19T06:46:48;40.67;;;24.10;;
52586;SDS011;38480;52.724;6.436;2022-08-19T06:49:15;41.27;;;24.23;;
52586;SDS011;38480;52.724;6.436;2022-08-19T06:51:42;46.83;;;25.87;;
52586;SDS011;38480;52.724;6.436;2022-08-19T06:54:09;38.93;;;23.93;;
52586;SDS011;38480;52.724;6.436;2022-08-19T06:56:36;30.37;;;21.23;;
52586;SDS011;38480;52.724;6.436;2022-08-19T06:59:07;36.43;;;24.20;;
52586;SDS011;38480;52.724;6.436;2022-08-19T07:01:34;34.17;;;23.93;;
52586;SDS011;38480;52.724;6.436;2022-08-19T07:04:02;30.83;;;21.87;;
52586;SDS011;38480;52.724;6.436;2022-08-19T07:06:28;33.33;;;22.80;;
52586;SDS011;38480;52.724;6.436;2022-08-19T07:08:56;36.87;;;22.83;;
52586;SDS011;38480;52.724;6.436;2022-08-19T07:11:23;35.57;;;22.40;;
52586;SDS011;38480;52.724;6.436;2022-08-19T07:13:49;27.77;;;21.20;;
52586;SDS011;38480;52.724;6.436;2022-08-19T07:16:17;28.00;;;21.77;;
52586;SDS011;38480;52.724;6.436;2022-08-19T07:18:47;27.30;;;21.37;;
52586;SDS011;38480;52.724;6.436;2022-08-19T07:21:20;28.13;;;21.80;;
52586;SDS011;38480;52.724;6.436;2022-08-19T07:23:47;28.47;;;21.47;;
52586;SDS011;38480;52.724;6.436;2022-08-19T07:26:22;26.10;;;20.07;;
52586;SDS011;38480;52.724;6.436;2022-08-19T07:28:49;26.70;;;20.30;;
52586;SDS011;38480;52.724;6.436;2022-08-19T07:31:16;31.30;;;21.47;;
52586;SDS011;38480;52.724;6.436;2022-08-19T07:33:43;26.20;;;20.37;;
52586;SDS011;38480;52.724;6.436;2022-08-19T07:36:11;24.57;;;20.00;;
52586;SDS011;38480;52.724;6.436;2022-08-19T07:38:38;21.80;;;19.37;;
52586;SDS011;38480;52.724;6.436;2022-08-19T07:41:05;24.67;;;16.90;;
52586;SDS011;38480;52.724;6.436;2022-08-19T07:43:31;22.60;;;18.00;;
52586;SDS011;38480;52.724;6.436;2022-08-19T07:45:57;20.33;;;16.90;;
52586;SDS011;38480;52.724;6.436;2022-08-19T07:48:24;23.17;;;17.67;;
52586;SDS011;38480;52.724;6.436;2022-08-19T07:50:55;20.53;;;17.03;;
52586;SDS011;38480;52.724;6.436;2022-08-19T07:53:22;22.50;;;18.17;;
52586;SDS011;38480;52.724;6.436;2022-08-19T07:55:48;19.00;;;15.10;;
52586;SDS011;38480;52.724;6.436;2022-08-19T07:58:15;21.87;;;16.23;;
52586;SDS011;38480;52.724;6.436;2022-08-19T08:00:42;18.60;;;16.60;;
52586;SDS011;38480;52.724;6.436;2022-08-19T08:03:09;19.37;;;16.97;;
52586;SDS011;38480;52.724;6.436;2022-08-19T08:05:35;19.87;;;16.60;;
52586;SDS011;38480;52.724;6.436;2022-08-19T08:08:20;25.03;;;17.33;;
52586;SDS011;38480;52.724;6.436;2022-08-19T08:11:06;18.07;;;15.87;;
52586;SDS011;38480;52.724;6.436;2022-08-19T08:13:32;17.80;;;15.53;;
52586;SDS011;38480;52.724;6.436;2022-08-19T08:16:00;24.03;;;18.33;;
52586;SDS011;38480;52.724;6.436;2022-08-19T08:18:27;17.83;;;15.23;;
52586;SDS011;38480;52.724;6.436;2022-08-19T08:20:53;21.63;;;15.07;;
52586;SDS011;38480;52.724;6.436;2022-08-19T08:23:19;20.07;;;15.17;;
52586;SDS011;38480;52.724;6.436;2022-08-19T08:25:50;17.00;;;15.10;;
52586;SDS011;38480;52.724;6.436;2022-08-19T08:28:16;20.53;;;17.27;;
52586;SDS011;38480;52.724;6.436;2022-08-19T08:30:42;20.27;;;17.70;;
52586;SDS011;38480;52.724;6.436;2022-08-19T08:33:10;19.37;;;15.37;;
52586;SDS011;38480;52.724;6.436;2022-08-19T08:35:36;18.00;;;16.20;;
52586;SDS011;38480;52.724;6.436;2022-08-19T08:38:03;18.53;;;14.53;;
52586;SDS011;38480;52.724;6.436;2022-08-19T08:40:46;19.17;;;16.20;;
52586;SDS011;38480;52.724;6.436;2022-08-19T08:45:47;14.70;;;13.20;;
52586;SDS011;38480;52.724;6.436;2022-08-19T08:48:27;15.73;;;13.97;;
52586;SDS011;38480;52.724;6.436;2022-08-19T08:50:56;13.93;;;12.47;;
52586;SDS011;38480;52.724;6.436;2022-08-19T08:53:23;16.77;;;14.97;;
52586;SDS011;38480;52.724;6.436;2022-08-19T08:55:49;14.33;;;12.87;;
52586;SDS011;38480;52.724;6.436;2022-08-19T08:58:25;14.07;;;12.73;;
52586;SDS011;38480;52.724;6.436;2022-08-19T09:00:53;13.60;;;12.23;;
52586;SDS011;38480;52.724;6.436;2022-08-19T09:03:21;14.17;;;12.73;;
52586;SDS011;38480;52.724;6.436;2022-08-19T09:06:03;14.60;;;12.25;;
52586;SDS011;38480;52.724;6.436;2022-08-19T09:11:22;13.13;;;10.70;;
52586;SDS011;38480;52.724;6.436;2022-08-19T09:16:18;16.00;;;12.27;;
52586;SDS011;38480;52.724;6.436;2022-08-19T09:18:49;13.82;;;11.88;;
52586;SDS011;38480;52.724;6.436;2022-08-19T09:21:18;10.45;;;9.35;;
52586;SDS011;38480;52.724;6.436;2022-08-19T09:23:45;14.32;;;12.77;;
52586;SDS011;38480;52.724;6.436;2022-08-19T09:26:15;16.42;;;13.35;;
52586;SDS011;38480;52.724;6.436;2022-08-19T09:28:42;14.48;;;13.02;;
52586;SDS011;38480;52.724;6.436;2022-08-19T09:31:11;13.88;;;10.48;;
52586;SDS011;38480;52.724;6.436;2022-08-19T09:33:37;9.88;;;8.52;;
52586;SDS011;38480;52.724;6.436;2022-08-19T09:36:05;11.85;;;10.10;;
52586;SDS011;38480;52.724;6.436;2022-08-19T09:38:32;13.23;;;11.98;;
52586;SDS011;38480;52.724;6.436;2022-08-19T09:41:01;11.05;;;9.63;;
52586;SDS011;38480;52.724;6.436;2022-08-19T09:43:27;10.38;;;9.38;;
52586;SDS011;38480;52.724;6.436;2022-08-19T09:45:53;16.15;;;11.98;;
52586;SDS011;38480;52.724;6.436;2022-08-19T09:48:19;10.50;;;9.30;;
52586;SDS011;38480;52.724;6.436;2022-08-19T09:50:45;12.90;;;11.27;;
52586;SDS011;38480;52.724;6.436;2022-08-19T09:53:11;11.02;;;9.93;;
52586;SDS011;38480;52.724;6.436;2022-08-19T09:55:41;11.98;;;10.55;;
52586;SDS011;38480;52.724;6.436;2022-08-19T09:58:07;9.80;;;8.90;;
52586;SDS011;38480;52.724;6.436;2022-08-19T10:00:34;11.05;;;10.02;;
52586;SDS011;38480;52.724;6.436;2022-08-19T10:03:02;11.23;;;10.23;;
52586;SDS011;38480;52.724;6.436;2022-08-19T10:05:28;10.52;;;9.48;;
52586;SDS011;38480;52.724;6.436;2022-08-19T10:08:13;10.27;;;9.20;;
52586;SDS011;38480;52.724;6.436;2022-08-19T10:10:39;13.95;;;11.15;;
52586;SDS011;38480;52.724;6.436;2022-08-19T10:13:08;12.38;;;11.07;;
52586;SDS011;38480;52.724;6.436;2022-08-19T10:15:34;13.27;;;10.98;;
52586;SDS011;38480;52.724;6.436;2022-08-19T10:18:00;11.82;;;10.70;;
52586;SDS011;38480;52.724;6.436;2022-08-19T10:20:27;12.25;;;11.00;;
52586;SDS011;38480;52.724;6.436;2022-08-19T10:22:54;10.65;;;9.55;;
52586;SDS011;38480;52.724;6.436;2022-08-19T10:25:20;14.98;;;11.77;;
52586;SDS011;38480;52.724;6.436;2022-08-19T10:27:46;12.50;;;11.30;;
52586;SDS011;38480;52.724;6.436;2022-08-19T10:30:12;12.30;;;8.82;;
52586;SDS011;38480;52.724;6.436;2022-08-19T10:32:38;9.55;;;8.55;;
52586;SDS011;38480;52.724;6.436;2022-08-19T10:35:05;9.90;;;8.68;;
52586;SDS011;38480;52.724;6.436;2022-08-19T10:37:33;11.75;;;10.10;;
52586;SDS011;38480;52.724;6.436;2022-08-19T10:39:59;10.60;;;7.53;;
52586;SDS011;38480;52.724;6.436;2022-08-19T10:42:26;8.70;;;7.75;;
52586;SDS011;38480;52.724;6.436;2022-08-19T10:44:53;12.48;;;10.55;;
52586;SDS011;38480;52.724;6.436;2022-08-19T10:47:19;10.82;;;9.60;;
52586;SDS011;38480;52.724;6.436;2022-08-19T10:49:48;11.20;;;10.02;;
52586;SDS011;38480;52.724;6.436;2022-08-19T10:52:32;14.82;;;11.73;;
52586;SDS011;38480;52.724;6.436;2022-08-19T10:55:02;12.77;;;11.57;;
52586;SDS011;38480;52.724;6.436;2022-08-19T10:57:47;12.85;;;9.80;;
52586;SDS011;38480;52.724;6.436;2022-08-19T11:00:13;13.43;;;12.02;;
52586;SDS011;38480;52.724;6.436;2022-08-19T11:02:40;14.07;;;12.57;;
52586;SDS011;38480;52.724;6.436;2022-08-19T11:05:07;14.15;;;12.60;;
52586;SDS011;38480;52.724;6.436;2022-08-19T11:07:34;11.80;;;10.60;;
52586;SDS011;38480;52.724;6.436;2022-08-19T11:10:02;13.57;;;12.27;;
52586;SDS011;38480;52.724;6.436;2022-08-19T11:12:28;12.73;;;11.55;;
52586;SDS011;38480;52.724;6.436;2022-08-19T11:14:54;15.00;;;13.60;;
52586;SDS011;38480;52.724;6.436;2022-08-19T11:17:20;14.45;;;13.05;;
52586;SDS011;38480;52.724;6.436;2022-08-19T11:19:48;12.73;;;11.48;;
52586;SDS011;38480;52.724;6.436;2022-08-19T11:22:15;13.73;;;12.48;;
52586;SDS011;38480;52.724;6.436;2022-08-19T11:24:42;12.73;;;10.23;;
52586;SDS011;38480;52.724;6.436;2022-08-19T11:27:08;11.48;;;8.90;;
52586;SDS011;38480;52.724;6.436;2022-08-19T11:29:37;12.95;;;11.10;;
52586;SDS011;38480;52.724;6.436;2022-08-19T11:32:07;11.25;;;9.77;;
52586;SDS011;38480;52.724;6.436;2022-08-19T11:34:34;13.95;;;11.75;;
52586;SDS011;38480;52.724;6.436;2022-08-19T11:37:00;13.50;;;12.13;;
52586;SDS011;38480;52.724;6.436;2022-08-19T11:39:28;14.15;;;12.80;;
52586;SDS011;38480;52.724;6.436;2022-08-19T11:41:54;13.35;;;12.05;;
52586;SDS011;38480;52.724;6.436;2022-08-19T11:44:20;14.95;;;13.25;;
52586;SDS011;38480;52.724;6.436;2022-08-19T11:46:47;14.52;;;12.20;;
52586;SDS011;38480;52.724;6.436;2022-08-19T11:49:14;11.48;;;10.07;;
52586;SDS011;38480;52.724;6.436;2022-08-19T11:51:40;11.45;;;10.35;;
52586;SDS011;38480;52.724;6.436;2022-08-19T11:54:09;13.70;;;12.35;;
52586;SDS011;38480;52.724;6.436;2022-08-19T11:56:36;14.05;;;12.55;;
52586;SDS011;38480;52.724;6.436;2022-08-19T11:59:02;13.77;;;12.43;;
52586;SDS011;38480;52.724;6.436;2022-08-19T12:01:28;14.23;;;10.20;;
52586;SDS011;38480;52.724;6.436;2022-08-19T12:03:55;9.70;;;8.77;;
52586;SDS011;38480;52.724;6.436;2022-08-19T12:06:23;9.70;;;8.60;;
52586;SDS011;38480;52.724;6.436;2022-08-19T12:08:50;8.38;;;7.57;;
52586;SDS011;38480;52.724;6.436;2022-08-19T12:11:16;9.60;;;8.70;;
52586;SDS011;38480;52.724;6.436;2022-08-19T12:13:42;13.70;;;12.30;;
52586;SDS011;38480;52.724;6.436;2022-08-19T12:16:17;11.75;;;10.52;;
52586;SDS011;38480;52.724;6.436;2022-08-19T12:18:43;9.38;;;8.20;;
52586;SDS011;38480;52.724;6.436;2022-08-19T12:21:11;11.13;;;9.88;;
52586;SDS011;38480;52.724;6.436;2022-08-19T12:23:39;12.73;;;11.02;;
52586;SDS011;38480;52.724;6.436;2022-08-19T12:26:05;10.15;;;9.10;;
52586;SDS011;38480;52.724;6.436;2022-08-19T12:28:31;8.57;;;6.20;;
52586;SDS011;38480;52.724;6.436;2022-08-19T12:30:57;9.75;;;8.75;;
52586;SDS011;38480;52.724;6.436;2022-08-19T12:33:23;8.50;;;7.47;;
52586;SDS011;38480;52.724;6.436;2022-08-19T12:35:52;10.30;;;9.23;;
52586;SDS011;38480;52.724;6.436;2022-08-19T12:38:18;10.38;;;8.90;;
52586;SDS011;38480;52.724;6.436;2022-08-19T12:40:47;11.20;;;10.10;;
52586;SDS011;38480;52.724;6.436;2022-08-19T12:45:42;12.98;;;11.77;;
52586;SDS011;38480;52.724;6.436;2022-08-19T12:48:09;11.95;;;10.40;;
52586;SDS011;38480;52.724;6.436;2022-08-19T12:50:36;10.05;;;8.15;;
52586;SDS011;38480;52.724;6.436;2022-08-19T12:53:04;10.38;;;7.82;;
52586;SDS011;38480;52.724;6.436;2022-08-19T12:55:30;9.95;;;8.95;;
52586;SDS011;38480;52.724;6.436;2022-08-19T12:57:56;12.43;;;10.20;;
52586;SDS011;38480;52.724;6.436;2022-08-19T13:00:23;11.23;;;10.10;;
52586;SDS011;38480;52.724;6.436;2022-08-19T13:02:50;12.68;;;10.75;;
52586;SDS011;38480;52.724;6.436;2022-08-19T13:05:17;13.65;;;11.60;;
52586;SDS011;38480;52.724;6.436;2022-08-19T13:07:48;13.55;;;10.57;;
52586;SDS011;38480;52.724;6.436;2022-08-19T13:10:16;10.82;;;8.75;;
52586;SDS011;38480;52.724;6.436;2022-08-19T13:12:43;10.07;;;8.88;;
52586;SDS011;38480;52.724;6.436;2022-08-19T13:15:09;8.77;;;7.50;;
52586;SDS011;38480;52.724;6.436;2022-08-19T13:17:35;8.52;;;6.35;;
52586;SDS011;38480;52.724;6.436;2022-08-19T13:20:02;8.02;;;5.25;;
52586;SDS011;38480;52.724;6.436;2022-08-19T13:22:28;9.50;;;8.45;;
52586;SDS011;38480;52.724;6.436;2022-08-19T13:24:54;11.65;;;8.13;;
52586;SDS011;38480;52.724;6.436;2022-08-19T13:27:20;8.88;;;7.32;;
52586;SDS011;38480;52.724;6.436;2022-08-19T13:29:46;10.57;;;9.40;;
52586;SDS011;38480;52.724;6.436;2022-08-19T13:32:30;9.70;;;8.55;;
52586;SDS011;38480;52.724;6.436;2022-08-19T13:35:16;8.70;;;6.70;;
52586;SDS011;38480;52.724;6.436;2022-08-19T13:37:42;9.65;;;6.35;;
52586;SDS011;38480;52.724;6.436;2022-08-19T13:40:10;6.28;;;5.40;;
52586;SDS011;38480;52.724;6.436;2022-08-19T13:42:39;8.55;;;6.30;;
52586;SDS011;38480;52.724;6.436;2022-08-19T13:45:05;8.05;;;5.63;;
52586;SDS011;38480;52.724;6.436;2022-08-19T13:47:32;12.00;;;6.53;;
52586;SDS011;38480;52.724;6.436;2022-08-19T13:50:09;7.88;;;5.32;;
52586;SDS011;38480;52.724;6.436;2022-08-19T13:52:36;8.23;;;5.07;;
52586;SDS011;38480;52.724;6.436;2022-08-19T13:55:02;8.20;;;6.07;;
52586;SDS011;38480;52.724;6.436;2022-08-19T13:57:29;9.07;;;6.38;;
52586;SDS011;38480;52.724;6.436;2022-08-19T13:59:55;10.40;;;7.45;;
52586;SDS011;38480;52.724;6.436;2022-08-19T14:02:23;7.80;;;7.10;;
52586;SDS011;38480;52.724;6.436;2022-08-19T14:04:49;7.95;;;6.28;;
52586;SDS011;38480;52.724;6.436;2022-08-19T14:07:15;10.43;;;6.35;;
52586;SDS011;38480;52.724;6.436;2022-08-19T14:09:41;7.55;;;6.32;;
52586;SDS011;38480;52.724;6.436;2022-08-19T14:12:07;10.38;;;8.43;;
52586;SDS011;38480;52.724;6.436;2022-08-19T14:14:36;8.63;;;6.93;;
52586;SDS011;38480;52.724;6.436;2022-08-19T14:17:05;9.55;;;7.10;;
52586;SDS011;38480;52.724;6.436;2022-08-19T14:19:31;11.60;;;9.75;;
52586;SDS011;38480;52.724;6.436;2022-08-19T14:21:57;13.40;;;11.30;;
52586;SDS011;38480;52.724;6.436;2022-08-19T14:24:23;15.20;;;11.55;;
52586;SDS011;38480;52.724;6.436;2022-08-19T14:26:49;15.85;;;10.45;;
52586;SDS011;38480;52.724;6.436;2022-08-19T14:29:16;13.63;;;10.20;;
52586;SDS011;38480;52.724;6.436;2022-08-19T14:31:42;10.30;;;8.55;;
52586;SDS011;38480;52.724;6.436;2022-08-19T14:34:08;14.10;;;10.50;;
52586;SDS011;38480;52.724;6.436;2022-08-19T14:36:35;11.23;;;8.48;;
52586;SDS011;38480;52.724;6.436;2022-08-19T14:39:01;11.70;;;9.60;;
52586;SDS011;38480;52.724;6.436;2022-08-19T14:41:28;11.52;;;9.73;;